Roseau, MN

4:44 PM CDT on August 22, 2014 (GMT -0500)
Roseau Municipal-Billberg | Change Station
CLOSE
Current Station
Airport
Location: Roseau,
Elevation: 1060 ft
Nearby Weather Stations

Elev 1060 ft 48.86 °N, 95.70 °W | Updated 10 minutes ago

Light Drizzle
Light Drizzle
70 °F
Feels Like 70 °F
N
5
Wind Variable Wind from NNE

Today
High -- | Low -- °F
--% Chance of Precip.
Yesterday
High -- | Low -- °F
Precip. -- in
6:25 AM 8:24 PM
Waning Crescent, 6% visible
Pressure 30.03 in
Visibility 10.0 miles
Clouds Clear
Dew Point 63 °F
Humidity 78%
Rainfall 0.69 in
Snow Depth Not available.
UV 4 out of 12
Pollen 9.40 out of 12
Air Quality Not available.
Flu Activity Not available.
METAR KROX 222134Z AUTO 03004KT 10SM -DZ CLR 21/17 A3003 RMK AO2 P0002

More Conditions Fewer Conditions

Pressure 30.03 in
Visibility 10.0 miles
Clouds Clear
Dew Point 63 °F
Humidity 78%
Rainfall 0.69 in
Snow Depth Not available.
UV 4 out of 12
Pollen 9.40 out of 12
Air Quality Not available.
Flu Activity Not available.
METAR KROX 222134Z AUTO 03004KT 10SM -DZ CLR 21/17 A3003 RMK AO2 P0002

More Conditions Fewer Conditions

10-Day Weather Forecast

Almanac

Astronomy

Aug. 22, 2014 Rise Set
Actual Time 6:25 AM CDT 8:24 PM CDT
Civil Twilight 5:51 AM CDT 8:58 PM CDT
Nautical Twilight 5:09 AM CDT 9:40 PM CDT
Astronomical Twilight 4:22 AM CDT 10:26 PM CDT
Moon 3:42 AM CDT 6:38 PM CDT
Length of Visible Light 15h 06m
Length of Day
13h 59m
Tomorrow will be 3m 21s shorter.
Waning Crescent, 6% of the Moon is Illuminated
Today
Waning Crescent
Aug 25
New
Sep 2
First Quarter
Sep 8
Full
Sep 15
Last Quarter

Today's Extremes

State Highs State Lows

Community

WunderPhotos

Upload Photos

1,746,260 photos uploaded!

Nearby

Snow Depth

Station Depth Elevation
No new snow has been reported.

Earthquake Activity

City Distance Mag. Time & Date
No recent earthquake activity has been reported nearby.
Minimum magnitude displayed is 2.5.

Coastal Water Temperatures

Place Temperature
No Stations Reporting

Nearby Weather Stations